createdAt,value
2018-09-12T00:00:35.565Z,16.62
2018-09-12T00:01:35.521Z,16.60
2018-09-12T00:02:35.502Z,16.65
2018-09-12T00:03:35.496Z,16.58
2018-09-12T00:04:35.458Z,16.58
2018-09-12T00:05:35.440Z,16.56
2018-09-12T00:06:35.421Z,16.60
2018-09-12T00:07:35.383Z,16.63
2018-09-12T00:08:35.376Z,16.65
2018-09-12T00:09:35.332Z,16.59
2018-09-12T00:10:35.312Z,16.53
2018-09-12T00:11:35.304Z,16.50
2018-09-12T00:12:35.271Z,16.55
2018-09-12T00:13:35.242Z,16.60
2018-09-12T00:14:35.219Z,16.59
2018-09-12T00:15:35.207Z,16.56
2018-09-12T00:16:35.176Z,16.60
2018-09-12T00:17:35.158Z,16.62
2018-09-12T00:18:35.128Z,16.60
2018-09-12T00:19:35.109Z,16.56
2018-09-12T00:20:35.094Z,16.55
2018-09-12T00:21:35.054Z,16.55
2018-09-12T00:22:35.031Z,16.53
2018-09-12T00:23:35.004Z,16.55
2018-09-12T00:24:34.987Z,16.45
2018-09-12T00:25:34.960Z,16.50
2018-09-12T00:26:34.948Z,16.55
2018-09-12T00:27:34.923Z,16.50
2018-09-12T00:28:34.892Z,16.48
2018-09-12T00:29:34.878Z,16.48
2018-09-12T00:30:34.856Z,16.45
2018-09-12T00:31:34.814Z,16.52
2018-09-12T00:32:34.797Z,16.48
2018-09-12T00:33:34.774Z,16.44
2018-09-12T00:34:34.768Z,16.52
2018-09-12T00:35:34.914Z,16.55
2018-09-12T00:36:34.716Z,16.60
2018-09-12T00:37:34.689Z,16.50
2018-09-12T00:38:34.651Z,16.60
2018-09-12T00:39:34.648Z,16.62
2018-09-12T00:40:34.617Z,16.60
2018-09-12T00:41:34.585Z,16.60
2018-09-12T00:42:34.572Z,16.58
2018-09-12T00:43:34.549Z,16.50
2018-09-12T00:44:34.515Z,16.45
2018-09-12T00:45:34.504Z,16.53
2018-09-12T00:46:34.477Z,16.52
2018-09-12T00:47:34.456Z,16.53
2018-09-12T00:48:34.417Z,16.50
2018-09-12T00:49:34.411Z,16.55
2018-09-12T00:50:34.382Z,16.55
2018-09-12T00:51:34.350Z,16.52
2018-09-12T00:52:34.328Z,16.52
2018-09-12T00:53:34.299Z,16.48
2018-09-12T00:54:34.276Z,16.52
2018-09-12T00:55:34.249Z,16.50
2018-09-12T00:56:34.232Z,16.48
2018-09-12T00:57:34.206Z,16.48
2018-09-12T00:58:34.185Z,16.49
2018-09-12T00:59:34.158Z,16.55
2018-09-12T01:00:34.141Z,16.58
2018-09-12T01:01:34.131Z,16.50
2018-09-12T01:02:34.101Z,16.50
2018-09-12T01:03:34.075Z,16.48
2018-09-12T01:04:34.042Z,16.48
2018-09-12T01:05:34.026Z,16.50
2018-09-12T01:06:33.996Z,16.48
2018-09-12T01:07:33.973Z,16.50
2018-09-12T01:08:33.962Z,16.49
2018-09-12T01:09:33.920Z,16.56
2018-09-12T01:10:33.901Z,16.62
2018-09-12T01:11:33.881Z,16.62
2018-09-12T01:12:33.865Z,16.60
2018-09-12T01:13:33.845Z,16.52
2018-09-12T01:14:33.808Z,16.56
2018-09-12T01:15:33.799Z,16.52
2018-09-12T01:16:33.756Z,16.50
2018-09-12T01:17:33.752Z,16.42
2018-09-12T01:18:33.726Z,16.44
2018-09-12T01:19:33.687Z,16.40
2018-09-12T01:20:33.685Z,16.42
2018-09-12T01:21:33.646Z,16.44
2018-09-12T01:22:33.621Z,16.41
2018-09-12T01:23:33.598Z,16.44
2018-09-12T01:24:33.573Z,16.35
2018-09-12T01:25:33.558Z,16.41
2018-09-12T01:26:33.536Z,16.41
2018-09-12T01:27:33.512Z,16.44
2018-09-12T01:28:33.491Z,16.42
2018-09-12T01:29:33.456Z,16.44
2018-09-12T01:30:33.428Z,16.44
2018-09-12T01:31:33.422Z,16.41
2018-09-12T01:32:33.398Z,16.38
2018-09-12T01:33:33.377Z,16.31
2018-09-12T01:34:33.336Z,16.41
2018-09-12T01:35:33.315Z,16.38
2018-09-12T01:36:33.301Z,16.33
2018-09-12T01:37:33.277Z,16.34
2018-09-12T01:38:33.261Z,16.34
2018-09-12T01:39:33.218Z,16.38
2018-09-12T01:40:33.194Z,16.30
2018-09-12T01:41:33.186Z,16.41
2018-09-12T01:42:33.152Z,16.44
2018-09-12T01:43:33.123Z,16.41
2018-09-12T01:44:33.105Z,16.49
2018-09-12T01:45:33.078Z,16.50
2018-09-12T01:46:33.049Z,16.45
2018-09-12T01:47:33.042Z,16.48
2018-09-12T01:48:33.020Z,16.56
2018-09-12T01:49:33.002Z,16.52
2018-09-12T01:50:32.974Z,16.60
2018-09-12T01:51:32.954Z,16.50
2018-09-12T01:52:32.932Z,16.55
2018-09-12T01:53:32.893Z,16.59
2018-09-12T01:54:32.867Z,16.58
2018-09-12T01:55:32.859Z,16.59
2018-09-12T01:56:32.835Z,16.59
2018-09-12T01:57:32.795Z,16.65
2018-09-12T01:58:32.785Z,16.65
2018-09-12T01:59:32.769Z,16.60
2018-09-12T02:00:32.736Z,16.65
2018-09-12T02:01:32.713Z,16.63
2018-09-12T02:02:32.677Z,16.56
2018-09-12T02:03:33.218Z,16.53
2018-09-12T02:04:32.648Z,16.52
2018-09-12T02:05:32.623Z,16.59
2018-09-12T02:06:32.597Z,16.50
2018-09-12T02:07:32.570Z,16.52
2018-09-12T02:08:32.552Z,16.53
2018-09-12T02:09:32.533Z,16.52
2018-09-12T02:10:32.489Z,16.48
2018-09-12T02:11:32.468Z,16.50
2018-09-12T02:12:32.452Z,16.48
2018-09-12T02:13:32.422Z,16.50
2018-09-12T02:14:32.402Z,16.56
2018-09-12T02:15:32.388Z,16.58
2018-09-12T02:16:32.366Z,16.59
2018-09-12T02:17:32.336Z,16.58
2018-09-12T02:18:32.315Z,16.67
2018-09-12T02:19:32.282Z,16.60
2018-09-12T02:20:32.271Z,16.70
2018-09-12T02:21:32.232Z,16.62
2018-09-12T02:22:32.215Z,16.68
2018-09-12T02:23:32.186Z,16.70
2018-09-12T02:24:32.164Z,16.62
2018-09-12T02:25:32.136Z,16.62
2018-09-12T02:26:32.125Z,16.68
2018-09-12T02:27:32.099Z,16.68
2018-09-12T02:28:32.079Z,16.62
2018-09-12T02:29:32.055Z,16.67
2018-09-12T02:30:32.022Z,16.67
2018-09-12T02:31:32.001Z,16.70
2018-09-12T02:32:31.979Z,16.73
2018-09-12T02:33:31.972Z,16.68
2018-09-12T02:34:31.928Z,16.65
2018-09-12T02:35:31.927Z,16.65
2018-09-12T02:36:31.911Z,16.65
2018-09-12T02:37:31.873Z,16.63
2018-09-12T02:38:31.842Z,16.73
2018-09-12T02:39:31.822Z,16.70
2018-09-12T02:40:31.790Z,16.70
2018-09-12T02:41:31.765Z,16.59
2018-09-12T02:42:31.753Z,16.68
2018-09-12T02:43:31.721Z,16.62
2018-09-12T02:44:31.699Z,16.68
2018-09-12T02:45:31.681Z,16.67
2018-09-12T02:46:31.665Z,16.62
2018-09-12T02:47:31.639Z,16.62
2018-09-12T02:48:31.621Z,16.59
2018-09-12T02:49:31.583Z,16.71
2018-09-12T02:50:31.558Z,16.68
2018-09-12T02:51:31.540Z,16.60
2018-09-12T02:52:31.512Z,16.58
2018-09-12T02:53:31.496Z,16.62
2018-09-12T02:54:31.480Z,16.58
2018-09-12T02:55:31.442Z,16.62
2018-09-12T02:56:31.425Z,16.55
2018-09-12T02:57:31.406Z,16.58
2018-09-12T02:58:31.380Z,16.55
2018-09-12T02:59:31.340Z,16.58
2018-09-12T03:00:31.335Z,16.63
2018-09-12T03:01:31.296Z,16.60
2018-09-12T03:02:31.287Z,16.59
2018-09-12T03:03:31.254Z,16.59
2018-09-12T03:04:31.240Z,16.60
2018-09-12T03:05:31.747Z,16.59
2018-09-12T03:06:31.197Z,16.62
2018-09-12T03:07:31.163Z,16.55
2018-09-12T03:08:31.134Z,16.53
2018-09-12T03:09:31.126Z,16.56
2018-09-12T03:10:31.097Z,16.53
2018-09-12T03:11:31.064Z,16.60
2018-09-12T03:12:31.056Z,16.62
2018-09-12T03:13:31.037Z,16.58
2018-09-12T03:14:31.002Z,16.59
2018-09-12T03:15:30.974Z,16.50
2018-09-12T03:16:30.962Z,16.62
2018-09-12T03:17:30.938Z,16.50
2018-09-12T03:18:30.913Z,16.49
2018-09-12T03:19:30.883Z,16.59
2018-09-12T03:20:30.918Z,16.60
2018-09-12T03:21:30.844Z,16.58
2018-09-12T03:22:30.815Z,16.56
2018-09-12T03:23:30.778Z,16.52
2018-09-12T03:24:30.766Z,16.55
2018-09-12T03:25:30.746Z,16.50
2018-09-12T03:26:30.727Z,16.48
2018-09-12T03:27:30.698Z,16.42
2018-09-12T03:28:30.665Z,16.42
2018-09-12T03:29:30.640Z,16.34
2018-09-12T03:30:30.625Z,16.34
2018-09-12T03:31:30.590Z,16.40
2018-09-12T03:32:30.571Z,16.23
2018-09-12T03:33:30.565Z,16.33
2018-09-12T03:34:30.531Z,16.27
2018-09-12T03:35:30.497Z,16.31
2018-09-12T03:36:30.495Z,16.31
2018-09-12T03:37:30.471Z,16.20
2018-09-12T03:38:30.432Z,16.30
2018-09-12T03:39:30.420Z,16.14
2018-09-12T03:40:30.392Z,16.20
2018-09-12T03:41:30.368Z,16.18
2018-09-12T03:42:30.334Z,16.18
2018-09-12T03:43:30.312Z,16.18
2018-09-12T03:44:30.290Z,16.22
2018-09-12T03:45:30.264Z,16.27
2018-09-12T03:46:30.243Z,16.22
2018-09-12T03:47:30.217Z,16.30
2018-09-12T03:48:30.205Z,16.20
2018-09-12T03:49:30.176Z,16.27
2018-09-12T03:50:30.143Z,16.31
2018-09-12T03:51:30.122Z,16.20
2018-09-12T03:52:30.111Z,16.18
2018-09-12T03:53:30.090Z,16.27
2018-09-12T03:54:30.066Z,16.27
2018-09-12T03:55:30.040Z,16.26
2018-09-12T03:56:30.005Z,16.22
2018-09-12T03:57:29.983Z,16.31
2018-09-12T03:58:29.953Z,16.18
2018-09-12T03:59:29.945Z,16.30
2018-09-12T04:00:29.923Z,16.26
2018-09-12T04:01:30.413Z,16.31
2018-09-12T04:02:29.875Z,16.33
2018-09-12T04:03:30.137Z,16.27
2018-09-12T04:04:29.825Z,16.22
2018-09-12T04:05:29.805Z,16.31
2018-09-12T04:06:29.765Z,16.31
2018-09-12T04:07:29.763Z,16.34
2018-09-12T04:08:29.714Z,16.41
2018-09-12T04:09:29.697Z,16.45
2018-09-12T04:10:29.670Z,16.41
2018-09-12T04:11:29.664Z,16.34
2018-09-12T04:12:29.628Z,16.30
2018-09-12T04:13:29.598Z,16.35
2018-09-12T04:14:29.580Z,16.31
2018-09-12T04:15:29.554Z,16.41
2018-09-12T04:16:29.528Z,16.33
2018-09-12T04:17:29.504Z,16.35
2018-09-12T04:18:29.483Z,16.37
2018-09-12T04:19:29.469Z,16.27
2018-09-12T04:20:29.435Z,16.37
2018-09-12T04:21:29.426Z,16.41
2018-09-12T04:22:29.388Z,16.35
2018-09-12T04:23:29.380Z,16.42
2018-09-12T04:24:29.345Z,16.41
2018-09-12T04:25:29.318Z,16.38
2018-09-12T04:26:29.295Z,16.49
2018-09-12T04:27:29.286Z,16.33
2018-09-12T04:28:29.266Z,16.30
2018-09-12T04:29:29.234Z,16.30
2018-09-12T04:30:29.211Z,16.26
2018-09-12T04:31:29.186Z,16.16
2018-09-12T04:32:29.168Z,16.22
2018-09-12T04:33:29.140Z,16.12
2018-09-12T04:34:29.118Z,16.15
2018-09-12T04:35:29.087Z,16.15
2018-09-12T04:36:29.058Z,16.20
2018-09-12T04:37:29.050Z,16.07
2018-09-12T04:38:29.014Z,16.09
2018-09-12T04:39:28.999Z,16.12
2018-09-12T04:40:28.967Z,16.12
2018-09-12T04:41:28.950Z,16.12
2018-09-12T04:42:28.914Z,16.07
2018-09-12T04:43:28.907Z,16.06
2018-09-12T04:44:28.868Z,16.04
2018-09-12T04:45:28.848Z,16.11
2018-09-12T04:46:28.824Z,16.00
2018-09-12T04:47:28.804Z,16.03
2018-09-12T04:48:28.809Z,16.00
2018-09-12T04:49:28.756Z,16.06
2018-09-12T04:50:28.724Z,15.97
2018-09-12T04:51:28.711Z,16.03
2018-09-12T04:52:28.679Z,15.99
2018-09-12T04:53:28.652Z,15.99
2018-09-12T04:54:28.630Z,16.01
2018-09-12T04:55:28.617Z,16.03
2018-09-12T04:56:28.598Z,15.99
2018-09-12T04:57:28.573Z,16.00
2018-09-12T04:58:28.547Z,16.03
2018-09-12T04:59:28.531Z,16.01
2018-09-12T05:00:28.484Z,16.11
2018-09-12T05:01:28.480Z,16.12
2018-09-12T05:02:28.434Z,16.06
2018-09-12T05:03:28.415Z,16.18
2018-09-12T05:04:28.392Z,16.07
2018-09-12T05:05:28.365Z,16.11
2018-09-12T05:06:28.336Z,16.12
2018-09-12T05:07:28.323Z,16.06
2018-09-12T05:08:28.309Z,16.11
2018-09-12T05:09:28.269Z,16.16
2018-09-12T05:10:28.265Z,16.20
2018-09-12T05:11:28.232Z,16.12
2018-09-12T05:12:28.209Z,16.11
2018-09-12T05:13:28.189Z,16.11
2018-09-12T05:14:28.149Z,16.06
2018-09-12T05:15:28.135Z,16.11
2018-09-12T05:16:28.118Z,16.07
2018-09-12T05:17:28.092Z,16.09
2018-09-12T05:18:28.069Z,16.12
2018-09-12T05:19:28.037Z,16.07
2018-09-12T05:20:28.017Z,16.11
2018-09-12T05:21:28.000Z,16.09
2018-09-12T05:22:27.973Z,16.04
2018-09-12T05:23:27.937Z,16.01
2018-09-12T05:24:27.928Z,15.99
2018-09-12T05:25:27.884Z,16.03
2018-09-12T05:26:27.869Z,16.00
2018-09-12T05:27:27.852Z,15.99
2018-09-12T05:28:27.829Z,15.96
2018-09-12T05:29:27.806Z,16.00
2018-09-12T05:30:27.770Z,15.97
2018-09-12T05:31:27.748Z,15.89
2018-09-12T05:32:27.734Z,15.94
2018-09-12T05:33:28.253Z,15.89
2018-09-12T05:34:27.683Z,15.84
2018-09-12T05:35:27.662Z,15.85
2018-09-12T05:36:27.663Z,15.89
2018-09-12T05:37:27.609Z,15.82
2018-09-12T05:38:27.578Z,15.82
2018-09-12T05:39:27.558Z,15.81
2018-09-12T05:40:27.544Z,15.81
2018-09-12T05:41:27.504Z,15.78
2018-09-12T05:42:27.487Z,15.70
2018-09-12T05:43:27.459Z,15.70
2018-09-12T05:44:27.461Z,15.74
2018-09-12T05:45:27.424Z,15.70
2018-09-12T05:46:27.388Z,15.75
2018-09-12T05:47:27.364Z,15.72
2018-09-12T05:48:27.337Z,15.74
2018-09-12T05:49:27.328Z,15.76
2018-09-12T05:50:27.303Z,15.70
2018-09-12T05:51:27.487Z,15.68
2018-09-12T05:52:27.248Z,15.67
2018-09-12T05:53:27.225Z,15.67
2018-09-12T05:54:27.196Z,15.74
2018-09-12T05:55:27.178Z,15.64
2018-09-12T05:56:27.153Z,15.68
2018-09-12T05:57:27.140Z,15.60
2018-09-12T05:58:27.105Z,15.59
2018-09-12T05:59:27.090Z,15.61
2018-09-12T06:00:27.058Z,15.57
2018-09-12T06:01:27.034Z,15.61
2018-09-12T06:02:27.018Z,15.61
2018-09-12T06:03:26.981Z,15.64
2018-09-12T06:04:26.969Z,15.70
2018-09-12T06:05:26.948Z,15.68
2018-09-12T06:06:26.978Z,15.72
2018-09-12T06:07:26.900Z,15.75
2018-09-12T06:08:26.862Z,15.81
2018-09-12T06:09:26.841Z,15.88
2018-09-12T06:10:26.821Z,15.84
2018-09-12T06:11:26.792Z,15.82
2018-09-12T06:12:26.778Z,15.82
2018-09-12T06:13:26.745Z,15.85
2018-09-12T06:14:26.733Z,15.85
2018-09-12T06:15:26.714Z,15.86
2018-09-12T06:16:26.684Z,15.79
2018-09-12T06:17:26.660Z,15.94
2018-09-12T06:18:26.626Z,15.89
2018-09-12T06:19:26.610Z,16.00
2018-09-12T06:20:26.569Z,16.00
2018-09-12T06:21:26.568Z,16.04
2018-09-12T06:22:26.531Z,16.00
2018-09-12T06:23:26.505Z,16.06
2018-09-12T06:24:26.493Z,16.06
2018-09-12T06:25:26.467Z,16.03
2018-09-12T06:26:26.448Z,16.03
2018-09-12T06:27:26.405Z,16.04
2018-09-12T06:28:26.400Z,16.00
2018-09-12T06:29:26.357Z,16.03
2018-09-12T06:30:26.341Z,16.03
2018-09-12T06:31:26.328Z,16.06
2018-09-12T06:32:26.291Z,16.06
2018-09-12T06:33:26.284Z,16.03
2018-09-12T06:34:26.252Z,16.01
2018-09-12T06:35:26.225Z,16.03
2018-09-12T06:36:26.192Z,16.04
2018-09-12T06:37:26.182Z,16.03
2018-09-12T06:38:26.234Z,16.04
2018-09-12T06:39:26.133Z,16.01
2018-09-12T06:40:26.114Z,16.03
2018-09-12T06:41:26.078Z,16.01
2018-09-12T06:42:26.053Z,16.07
2018-09-12T06:43:26.040Z,16.04
2018-09-12T06:44:26.019Z,16.03
2018-09-12T06:45:25.992Z,16.11
2018-09-12T06:46:25.956Z,16.16
2018-09-12T06:47:25.939Z,16.09
2018-09-12T06:48:26.461Z,16.09
2018-09-12T06:49:25.896Z,15.96
2018-09-12T06:50:25.857Z,16.04
2018-09-12T06:51:25.838Z,16.07
2018-09-12T06:52:26.349Z,16.03
2018-09-12T06:53:25.798Z,16.16
2018-09-12T06:54:25.769Z,16.11
2018-09-12T06:55:25.740Z,16.09
2018-09-12T06:56:25.713Z,16.07
2018-09-12T06:57:25.696Z,16.04
2018-09-12T06:58:25.677Z,16.07
2018-09-12T06:59:25.642Z,16.04
2018-09-12T07:00:25.636Z,16.16
2018-09-12T07:01:25.614Z,16.09
2018-09-12T07:02:25.588Z,16.11
2018-09-12T07:03:25.563Z,16.09
2018-09-12T07:04:25.546Z,16.07
2018-09-12T07:05:25.515Z,16.09
2018-09-12T07:06:25.485Z,16.06
2018-09-12T07:07:25.472Z,16.15
2018-09-12T07:08:25.446Z,16.09
2018-09-12T07:09:25.434Z,16.07
2018-09-12T07:10:25.381Z,16.07
2018-09-12T07:11:25.372Z,16.09
2018-09-12T07:12:25.349Z,16.15
2018-09-12T07:13:25.322Z,16.06
2018-09-12T07:14:25.297Z,16.09
2018-09-12T07:15:25.275Z,16.09
2018-09-12T07:16:25.240Z,16.11
2018-09-12T07:17:25.221Z,16.12
2018-09-12T07:18:25.192Z,16.12
2018-09-12T07:19:25.169Z,16.12
2018-09-12T07:20:25.149Z,16.12
2018-09-12T07:21:25.132Z,16.12
2018-09-12T07:22:25.107Z,16.20
2018-09-12T07:23:25.075Z,16.07
2018-09-12T07:24:25.143Z,16.11
2018-09-12T07:25:25.026Z,16.04
2018-09-12T07:26:25.017Z,16.07
2018-09-12T07:27:24.979Z,16.04
2018-09-12T07:28:24.968Z,16.11
2018-09-12T07:29:24.949Z,16.14
2018-09-12T07:30:24.934Z,16.06
2018-09-12T07:31:24.889Z,16.06
2018-09-12T07:32:24.874Z,16.09
2018-09-12T07:33:24.848Z,16.16
2018-09-12T07:34:24.812Z,16.14
2018-09-12T07:35:24.801Z,16.11
2018-09-12T07:36:24.774Z,16.07
2018-09-12T07:37:24.754Z,16.07
2018-09-12T07:38:24.717Z,16.06
2018-09-12T07:39:24.701Z,16.12
2018-09-12T07:40:24.673Z,16.15
2018-09-12T07:41:24.648Z,16.11
2018-09-12T07:42:24.641Z,16.07
2018-09-12T07:43:24.616Z,16.12
2018-09-12T07:44:24.579Z,16.09
2018-09-12T07:45:24.563Z,16.14
2018-09-12T07:46:24.544Z,16.12
2018-09-12T07:47:24.520Z,16.12
2018-09-12T07:48:24.481Z,16.04
2018-09-12T07:49:24.472Z,16.06
2018-09-12T07:50:24.441Z,16.06
2018-09-12T07:51:24.416Z,16.03
2018-09-12T07:52:24.380Z,16.03
2018-09-12T07:53:24.369Z,16.04
2018-09-12T07:54:24.338Z,15.99
2018-09-12T07:55:24.327Z,16.01
2018-09-12T07:56:24.399Z,15.96
2018-09-12T07:57:24.281Z,15.94
2018-09-12T07:58:24.253Z,15.89
2018-09-12T07:59:24.229Z,15.85
2018-09-12T08:00:24.213Z,15.84
2018-09-12T08:01:24.169Z,15.86
2018-09-12T08:02:24.160Z,15.85
2018-09-12T08:03:24.117Z,15.89
2018-09-12T08:04:24.101Z,15.86
2018-09-12T08:05:24.090Z,15.82
2018-09-12T08:06:24.047Z,15.85
2018-09-12T08:07:24.037Z,15.82
2018-09-12T08:08:24.014Z,15.84
2018-09-12T08:09:23.976Z,15.84
2018-09-12T08:10:23.967Z,15.79
2018-09-12T08:11:23.930Z,15.84
2018-09-12T08:12:23.901Z,15.82
2018-09-12T08:13:23.896Z,15.88
2018-09-12T08:14:23.869Z,15.86
2018-09-12T08:15:23.837Z,15.94
2018-09-12T08:16:23.808Z,15.88
2018-09-12T08:17:23.804Z,15.84
2018-09-12T08:18:23.768Z,15.82
2018-09-12T08:19:23.751Z,15.85
2018-09-12T08:20:23.719Z,15.84
2018-09-12T08:21:23.700Z,15.81
2018-09-12T08:22:23.675Z,15.88
2018-09-12T08:23:23.651Z,15.94
2018-09-12T08:24:23.617Z,15.94
2018-09-12T08:25:23.607Z,15.96
2018-09-12T08:26:23.584Z,15.94
2018-09-12T08:27:23.553Z,15.92
2018-09-12T08:28:23.535Z,15.97
2018-09-12T08:29:23.589Z,16.00
2018-09-12T08:30:23.488Z,15.97
2018-09-12T08:31:23.470Z,15.99
2018-09-12T08:32:23.426Z,15.96
2018-09-12T08:33:23.431Z,15.94
2018-09-12T08:34:23.386Z,15.93
2018-09-12T08:35:23.372Z,15.97
2018-09-12T08:36:23.360Z,15.96
2018-09-12T08:37:23.310Z,15.96
2018-09-12T08:38:23.298Z,15.89
2018-09-12T08:39:23.275Z,15.96
2018-09-12T08:40:23.238Z,15.96
2018-09-12T08:41:23.226Z,15.97
2018-09-12T08:42:23.206Z,16.01
2018-09-12T08:43:23.167Z,15.97
2018-09-12T08:44:23.152Z,15.97
2018-09-12T08:45:23.118Z,15.94
2018-09-12T08:46:23.090Z,15.86
2018-09-12T08:47:23.088Z,15.86
2018-09-12T08:48:23.049Z,15.84
2018-09-12T08:49:23.034Z,15.89
2018-09-12T08:50:22.994Z,15.88
2018-09-12T08:51:22.988Z,15.88
2018-09-12T08:52:22.960Z,15.86
2018-09-12T08:53:22.925Z,15.89
2018-09-12T08:54:22.901Z,15.89
2018-09-12T08:55:22.889Z,15.85
2018-09-12T08:56:22.871Z,15.74
2018-09-12T08:57:22.838Z,15.75
2018-09-12T08:58:22.807Z,15.76
2018-09-12T08:59:22.783Z,15.70
2018-09-12T09:00:22.824Z,15.79
2018-09-12T09:01:22.798Z,15.68
2018-09-12T09:02:22.711Z,15.76
2018-09-12T09:03:22.686Z,15.75
2018-09-12T09:04:22.661Z,15.78
2018-09-12T09:05:22.648Z,15.74
2018-09-12T09:06:22.612Z,15.72
2018-09-12T09:07:22.592Z,15.66
2018-09-12T09:08:22.584Z,15.79
2018-09-12T09:09:22.538Z,15.82
2018-09-12T09:10:22.525Z,15.92
2018-09-12T09:11:22.491Z,15.85
2018-09-12T09:12:22.481Z,15.88
2018-09-12T09:13:22.451Z,15.82
2018-09-12T09:14:22.436Z,15.89
2018-09-12T09:15:22.396Z,15.85
2018-09-12T09:16:22.370Z,15.84
2018-09-12T09:17:22.357Z,15.88
2018-09-12T09:18:22.335Z,15.82
2018-09-12T09:19:22.320Z,15.84
2018-09-12T09:20:22.276Z,15.88
2018-09-12T09:21:22.268Z,15.84
2018-09-12T09:22:22.225Z,15.92
2018-09-12T09:23:22.201Z,15.94
2018-09-12T09:24:22.183Z,15.99
2018-09-12T09:25:22.168Z,15.96
2018-09-12T09:26:22.133Z,16.01
2018-09-12T09:27:22.110Z,16.06
2018-09-12T09:28:22.098Z,16.01
2018-09-12T09:29:22.087Z,16.01
2018-09-12T09:30:22.047Z,16.04
2018-09-12T09:31:22.014Z,16.04
2018-09-12T09:32:22.004Z,16.07
2018-09-12T09:33:21.983Z,16.11
2018-09-12T09:34:21.941Z,16.14
2018-09-12T09:35:21.972Z,16.11
2018-09-12T09:36:21.907Z,16.15
2018-09-12T09:37:21.871Z,16.20
2018-09-12T09:38:21.867Z,16.06
2018-09-12T09:39:21.825Z,16.09
2018-09-12T09:40:21.811Z,16.16
2018-09-12T09:41:21.786Z,16.15
2018-09-12T09:42:21.752Z,16.20
2018-09-12T09:43:21.744Z,16.33
2018-09-12T09:44:21.707Z,16.22
2018-09-12T09:45:21.683Z,16.45
2018-09-12T09:46:21.668Z,16.48
2018-09-12T09:47:21.630Z,16.56
2018-09-12T09:48:21.672Z,16.62
2018-09-12T09:49:21.601Z,16.75
2018-09-12T09:50:21.572Z,16.80
2018-09-12T09:51:21.549Z,16.78
2018-09-12T09:52:21.515Z,16.83
2018-09-12T09:53:21.505Z,16.81
2018-09-12T09:54:21.476Z,16.96
2018-09-12T09:55:21.452Z,16.99
2018-09-12T09:56:21.421Z,16.83
2018-09-12T09:57:21.392Z,16.74
2018-09-12T09:58:21.383Z,16.75
2018-09-12T09:59:21.350Z,16.73
2018-09-12T10:00:21.387Z,16.73
2018-09-12T10:01:21.311Z,16.92
2018-09-12T10:02:21.305Z,16.99
2018-09-12T10:03:21.271Z,17.32
2018-09-12T10:04:21.250Z,17.32
2018-09-12T10:05:21.209Z,17.38
2018-09-12T10:06:21.193Z,17.62
2018-09-12T10:07:21.183Z,17.81
2018-09-12T10:08:21.294Z,17.89
2018-09-12T10:09:21.128Z,17.50
2018-09-12T10:10:21.104Z,17.76
2018-09-12T10:11:21.077Z,17.94
2018-09-12T10:12:21.051Z,18.07
2018-09-12T10:13:21.029Z,18.12
2018-09-12T10:14:21.025Z,18.06
2018-09-12T10:15:20.982Z,18.15
2018-09-12T10:16:20.977Z,17.92
2018-09-12T10:17:20.940Z,17.74
2018-09-12T10:18:20.936Z,17.38
2018-09-12T10:19:20.911Z,17.07
2018-09-12T10:20:20.873Z,17.30
2018-09-12T10:21:20.849Z,17.38
2018-09-12T10:22:20.831Z,17.55
2018-09-12T10:23:20.823Z,17.36
2018-09-12T10:24:20.918Z,17.15
2018-09-12T10:25:20.763Z,17.03
2018-09-12T10:26:20.754Z,17.08
2018-09-12T10:27:20.727Z,17.13
2018-09-12T10:28:20.695Z,17.38
2018-09-12T10:29:20.671Z,17.55
2018-09-12T10:30:20.663Z,17.38
2018-09-12T10:31:20.644Z,17.22
2018-09-12T10:32:20.605Z,17.32
2018-09-12T10:33:20.597Z,17.35
2018-09-12T10:34:20.583Z,17.47
2018-09-12T10:35:20.538Z,17.55
2018-09-12T10:36:20.540Z,17.82
2018-09-12T10:37:20.513Z,17.74
2018-09-12T10:38:20.486Z,17.33
2018-09-12T10:39:20.469Z,17.30
2018-09-12T10:40:20.442Z,17.28
2018-09-12T10:41:20.413Z,17.43
2018-09-12T10:42:20.386Z,17.29
2018-09-12T10:43:20.368Z,17.28
2018-09-12T10:44:20.341Z,17.40
2018-09-12T10:45:20.336Z,17.47
2018-09-12T10:46:20.315Z,17.38
2018-09-12T10:47:20.290Z,17.47
2018-09-12T10:48:20.295Z,17.78
2018-09-12T10:49:20.232Z,18.27
2018-09-12T10:50:20.223Z,18.57
2018-09-12T10:51:20.192Z,18.07
2018-09-12T10:52:20.182Z,17.89
2018-09-12T10:53:20.142Z,17.67
2018-09-12T10:54:20.135Z,17.64
2018-09-12T10:55:20.103Z,17.81
2018-09-12T10:56:20.093Z,17.95
2018-09-12T10:57:20.053Z,17.91
2018-09-12T10:58:20.051Z,17.71
2018-09-12T10:59:20.013Z,17.76
2018-09-12T11:00:19.992Z,17.92
2018-09-12T11:01:19.977Z,17.70
2018-09-12T11:02:19.963Z,17.55
2018-09-12T11:03:19.929Z,17.38
2018-09-12T11:04:19.968Z,17.30
2018-09-12T11:05:19.901Z,17.46
2018-09-12T11:06:19.865Z,17.67
2018-09-12T11:07:19.836Z,17.70
2018-09-12T11:08:19.822Z,17.78
2018-09-12T11:09:19.812Z,17.94
2018-09-12T11:10:19.787Z,18.34
2018-09-12T11:11:19.754Z,18.13
2018-09-12T11:12:19.749Z,18.17
2018-09-12T11:13:19.723Z,18.04
2018-09-12T11:14:19.699Z,18.19
2018-09-12T11:15:19.679Z,18.46
2018-09-12T11:16:19.666Z,18.94
2018-09-12T11:17:19.637Z,19.13
2018-09-12T11:18:19.619Z,19.28
2018-09-12T11:19:19.590Z,19.11
2018-09-12T11:20:19.564Z,18.84
2018-09-12T11:21:19.555Z,18.90
2018-09-12T11:22:19.536Z,18.65
2018-09-12T11:23:19.507Z,18.57
2018-09-12T11:24:19.499Z,18.73
2018-09-12T11:25:19.465Z,19.13
2018-09-12T11:26:19.438Z,18.92
2018-09-12T11:27:19.417Z,19.11
2018-09-12T11:28:19.395Z,19.29
2018-09-12T11:29:19.378Z,19.25
2018-09-12T11:30:19.358Z,19.31
2018-09-12T11:31:19.344Z,19.33
2018-09-12T11:32:19.327Z,19.84
2018-09-12T11:33:19.304Z,19.35
2018-09-12T11:34:19.309Z,18.92
2018-09-12T11:35:19.267Z,19.06
2018-09-12T11:36:19.241Z,19.31
2018-09-12T11:37:19.234Z,18.99
2018-09-12T11:38:19.216Z,19.17
2018-09-12T11:39:19.187Z,19.61
2018-09-12T11:40:19.153Z,19.69
2018-09-12T11:41:19.150Z,19.75
2018-09-12T11:42:19.116Z,19.28
2018-09-12T11:43:19.101Z,19.02
2018-09-12T11:44:19.077Z,18.94
2018-09-12T11:45:19.072Z,18.92
2018-09-12T11:46:19.051Z,19.13
2018-09-12T11:47:19.018Z,19.61
2018-09-12T11:48:19.009Z,19.75
2018-09-12T11:49:18.980Z,19.73
2018-09-12T11:50:18.955Z,19.39
2018-09-12T11:51:18.939Z,19.65
2018-09-12T11:52:18.934Z,19.72
2018-09-12T11:53:18.899Z,19.66
2018-09-12T11:54:18.880Z,19.21
2018-09-12T11:55:18.869Z,19.15
2018-09-12T11:56:18.842Z,19.28
2018-09-12T11:57:18.825Z,19.63
2018-09-12T11:58:18.810Z,19.51
2018-09-12T11:59:18.802Z,19.51
2018-09-12T12:00:18.765Z,19.61
2018-09-12T12:01:18.746Z,19.65
2018-09-12T12:02:18.811Z,19.46
2018-09-12T12:03:18.719Z,19.53
2018-09-12T12:04:18.701Z,19.60
2018-09-12T12:05:18.667Z,19.63
2018-09-12T12:06:18.645Z,19.60
2018-09-12T12:07:18.644Z,19.63
2018-09-12T12:08:18.607Z,19.53
2018-09-12T12:09:18.586Z,19.61
2018-09-12T12:10:18.588Z,19.72
2018-09-12T12:11:18.555Z,19.63
2018-09-12T12:12:18.549Z,19.73
2018-09-12T12:13:18.560Z,20.18
2018-09-12T12:14:18.510Z,20.23
2018-09-12T12:15:18.529Z,19.88
2018-09-12T12:16:18.474Z,19.93
2018-09-12T12:17:18.448Z,20.02
2018-09-12T12:18:18.425Z,20.00
2018-09-12T12:19:18.419Z,19.43
2018-09-12T12:20:18.384Z,19.47
2018-09-12T12:21:18.367Z,19.28
2018-09-12T12:22:18.904Z,18.99
2018-09-12T12:23:18.974Z,18.91
2018-09-12T12:24:18.303Z,18.87
2018-09-12T12:25:18.346Z,19.14
2018-09-12T12:26:18.272Z,19.15
2018-09-12T12:27:18.242Z,18.98
2018-09-12T12:28:18.229Z,19.29
2018-09-12T12:29:18.216Z,19.35
2018-09-12T12:30:18.183Z,19.36
2018-09-12T12:31:18.177Z,19.24
2018-09-12T12:32:18.166Z,19.18
2018-09-12T12:33:18.129Z,19.17
2018-09-12T12:34:18.119Z,19.20
2018-09-12T12:35:18.098Z,19.15
2018-09-12T12:36:18.081Z,19.36
2018-09-12T12:37:18.060Z,19.46
2018-09-12T12:38:18.026Z,19.69
2018-09-12T12:39:18.027Z,19.90
2018-09-12T12:40:17.985Z,19.88
2018-09-12T12:41:18.061Z,20.13
2018-09-12T12:42:17.969Z,20.24
2018-09-12T12:43:17.952Z,20.18
2018-09-12T12:44:17.931Z,20.59
2018-09-12T12:45:17.900Z,20.91
2018-09-12T12:46:17.872Z,20.38
2018-09-12T12:47:17.872Z,20.51
2018-09-12T12:48:17.852Z,20.25
2018-09-12T12:49:17.842Z,20.74
2018-09-12T12:50:17.822Z,20.81
2018-09-12T12:51:17.786Z,20.30
2018-09-12T12:52:17.780Z,19.94